sensor_id;sensor_type;location;lat;lon;timestamp;temperature;humidity
40123;DHT22;25832;45.490;4.912;2023-06-14T00:00:48;18.30;99.90
40123;DHT22;25832;45.490;4.912;2023-06-14T00:03:14;18.30;99.90
40123;DHT22;25832;45.490;4.912;2023-06-14T00:05:43;18.40;99.90
40123;DHT22;25832;45.490;4.912;2023-06-14T00:08:09;18.40;99.90
40123;DHT22;25832;45.490;4.912;2023-06-14T00:10:35;18.30;99.90
40123;DHT22;25832;45.490;4.912;2023-06-14T00:13:02;18.30;99.90
40123;DHT22;25832;45.490;4.912;2023-06-14T00:15:30;18.20;99.90
40123;DHT22;25832;45.490;4.912;2023-06-14T00:17:56;18.20;99.90
40123;DHT22;25832;45.490;4.912;2023-06-14T00:20:26;18.20;99.90
40123;DHT22;25832;45.490;4.912;2023-06-14T00:22:53;18.20;99.90
40123;DHT22;25832;45.490;4.912;2023-06-14T00:25:21;18.10;99.90
40123;DHT22;25832;45.490;4.912;2023-06-14T00:27:47;18.10;99.90
40123;DHT22;25832;45.490;4.912;2023-06-14T00:30:13;18.10;99.90
40123;DHT22;25832;45.490;4.912;2023-06-14T00:32:39;18.10;99.90
40123;DHT22;25832;45.490;4.912;2023-06-14T00:35:05;18.10;99.90
40123;DHT22;25832;45.490;4.912;2023-06-14T00:37:30;18.10;99.90
40123;DHT22;25832;45.490;4.912;2023-06-14T00:39:56;18.10;99.90
40123;DHT22;25832;45.490;4.912;2023-06-14T00:42:28;18.10;99.90
40123;DHT22;25832;45.490;4.912;2023-06-14T00:44:54;18.10;99.90
40123;DHT22;25832;45.490;4.912;2023-06-14T00:47:20;18.10;99.90
40123;DHT22;25832;45.490;4.912;2023-06-14T00:49:56;18.00;99.90
40123;DHT22;25832;45.490;4.912;2023-06-14T00:52:23;18.00;99.90
40123;DHT22;25832;45.490;4.912;2023-06-14T00:54:49;17.90;99.90
40123;DHT22;25832;45.490;4.912;2023-06-14T00:57:15;17.80;99.90
40123;DHT22;25832;45.490;4.912;2023-06-14T00:59:49;17.80;99.90
40123;DHT22;25832;45.490;4.912;2023-06-14T01:02:15;17.80;99.90
40123;DHT22;25832;45.490;4.912;2023-06-14T01:04:42;17.70;99.90
40123;DHT22;25832;45.490;4.912;2023-06-14T01:07:40;17.70;99.90
40123;DHT22;25832;45.490;4.912;2023-06-14T01:15:35;17.50;99.90
40123;DHT22;25832;45.490;4.912;2023-06-14T01:18:04;17.50;99.90
40123;DHT22;25832;45.490;4.912;2023-06-14T01:20:32;17.50;99.90
40123;DHT22;25832;45.490;4.912;2023-06-14T01:22:59;17.50;99.90
40123;DHT22;25832;45.490;4.912;2023-06-14T01:25:25;17.50;99.90
40123;DHT22;25832;45.490;4.912;2023-06-14T01:28:00;17.50;99.90
40123;DHT22;25832;45.490;4.912;2023-06-14T01:30:27;17.60;99.90
40123;DHT22;25832;45.490;4.912;2023-06-14T01:32:54;17.60;99.90
40123;DHT22;25832;45.490;4.912;2023-06-14T01:35:21;17.60;99.90
40123;DHT22;25832;45.490;4.912;2023-06-14T01:37:48;17.60;99.90
40123;DHT22;25832;45.490;4.912;2023-06-14T01:40:15;17.60;99.90
40123;DHT22;25832;45.490;4.912;2023-06-14T01:42:42;17.60;99.90
40123;DHT22;25832;45.490;4.912;2023-06-14T01:45:10;17.60;99.90
40123;DHT22;25832;45.490;4.912;2023-06-14T01:47:36;17.60;99.90
40123;DHT22;25832;45.490;4.912;2023-06-14T01:50:03;17.60;99.90
40123;DHT22;25832;45.490;4.912;2023-06-14T01:52:29;17.60;99.90
40123;DHT22;25832;45.490;4.912;2023-06-14T01:54:55;17.70;99.90
40123;DHT22;25832;45.490;4.912;2023-06-14T01:57:21;17.60;99.90
40123;DHT22;25832;45.490;4.912;2023-06-14T01:59:47;17.60;99.90
40123;DHT22;25832;45.490;4.912;2023-06-14T02:02:14;17.60;99.90
40123;DHT22;25832;45.490;4.912;2023-06-14T02:04:40;17.60;99.90
40123;DHT22;25832;45.490;4.912;2023-06-14T02:07:06;17.70;99.90
40123;DHT22;25832;45.490;4.912;2023-06-14T02:09:33;17.70;99.90
40123;DHT22;25832;45.490;4.912;2023-06-14T02:12:00;17.70;99.90
40123;DHT22;25832;45.490;4.912;2023-06-14T02:14:26;17.70;99.90
40123;DHT22;25832;45.490;4.912;2023-06-14T02:16:52;17.70;99.90
40123;DHT22;25832;45.490;4.912;2023-06-14T02:19:19;17.70;99.90
40123;DHT22;25832;45.490;4.912;2023-06-14T02:21:45;17.60;99.90
40123;DHT22;25832;45.490;4.912;2023-06-14T02:24:10;17.60;99.90
40123;DHT22;25832;45.490;4.912;2023-06-14T02:26:36;17.50;99.90
40123;DHT22;25832;45.490;4.912;2023-06-14T02:29:07;17.40;99.90
40123;DHT22;25832;45.490;4.912;2023-06-14T02:31:35;17.40;99.90
40123;DHT22;25832;45.490;4.912;2023-06-14T02:34:01;17.40;99.90
40123;DHT22;25832;45.490;4.912;2023-06-14T02:36:27;17.30;99.90
40123;DHT22;25832;45.490;4.912;2023-06-14T02:38:55;17.40;99.90
40123;DHT22;25832;45.490;4.912;2023-06-14T02:41:23;17.40;99.90
40123;DHT22;25832;45.490;4.912;2023-06-14T02:43:49;17.30;99.90
40123;DHT22;25832;45.490;4.912;2023-06-14T02:46:14;17.30;99.90
40123;DHT22;25832;45.490;4.912;2023-06-14T02:48:40;17.30;99.90
40123;DHT22;25832;45.490;4.912;2023-06-14T02:51:06;17.30;99.90
40123;DHT22;25832;45.490;4.912;2023-06-14T02:53:33;17.30;99.90
40123;DHT22;25832;45.490;4.912;2023-06-14T02:56:00;17.40;99.90
40123;DHT22;25832;45.490;4.912;2023-06-14T02:58:26;17.40;99.90
40123;DHT22;25832;45.490;4.912;2023-06-14T03:00:52;17.40;99.90
40123;DHT22;25832;45.490;4.912;2023-06-14T03:03:20;17.40;99.90
40123;DHT22;25832;45.490;4.912;2023-06-14T03:05:48;17.40;99.90
40123;DHT22;25832;45.490;4.912;2023-06-14T03:08:18;17.50;99.90
40123;DHT22;25832;45.490;4.912;2023-06-14T03:10:48;17.50;99.90
40123;DHT22;25832;45.490;4.912;2023-06-14T03:13:14;17.50;99.90
40123;DHT22;25832;45.490;4.912;2023-06-14T03:15:41;17.60;99.90
40123;DHT22;25832;45.490;4.912;2023-06-14T03:18:08;17.60;99.90
40123;DHT22;25832;45.490;4.912;2023-06-14T03:20:35;17.50;99.90
40123;DHT22;25832;45.490;4.912;2023-06-14T03:23:02;17.60;99.90
40123;DHT22;25832;45.490;4.912;2023-06-14T03:25:28;17.60;99.90
40123;DHT22;25832;45.490;4.912;2023-06-14T03:27:58;17.50;99.90
40123;DHT22;25832;45.490;4.912;2023-06-14T03:30:24;17.60;99.90
40123;DHT22;25832;45.490;4.912;2023-06-14T03:32:49;17.50;99.90
40123;DHT22;25832;45.490;4.912;2023-06-14T03:35:18;17.50;99.90
40123;DHT22;25832;45.490;4.912;2023-06-14T03:37:45;17.50;99.90
40123;DHT22;25832;45.490;4.912;2023-06-14T03:40:12;17.60;99.90
40123;DHT22;25832;45.490;4.912;2023-06-14T03:42:38;17.50;99.90
40123;DHT22;25832;45.490;4.912;2023-06-14T03:45:04;17.60;99.90
40123;DHT22;25832;45.490;4.912;2023-06-14T03:47:30;17.50;99.90
40123;DHT22;25832;45.490;4.912;2023-06-14T03:49:56;17.50;99.90
40123;DHT22;25832;45.490;4.912;2023-06-14T03:52:21;17.50;99.90
40123;DHT22;25832;45.490;4.912;2023-06-14T03:54:48;17.50;99.90
40123;DHT22;25832;45.490;4.912;2023-06-14T03:57:15;17.40;99.90
40123;DHT22;25832;45.490;4.912;2023-06-14T03:59:41;17.30;99.90
40123;DHT22;25832;45.490;4.912;2023-06-14T04:02:07;17.30;99.90
40123;DHT22;25832;45.490;4.912;2023-06-14T04:04:35;17.30;99.90
40123;DHT22;25832;45.490;4.912;2023-06-14T04:07:01;17.20;99.90
40123;DHT22;25832;45.490;4.912;2023-06-14T04:09:29;17.20;99.90
40123;DHT22;25832;45.490;4.912;2023-06-14T04:11:55;17.20;99.90
40123;DHT22;25832;45.490;4.912;2023-06-14T04:14:21;17.10;99.90
40123;DHT22;25832;45.490;4.912;2023-06-14T04:16:48;17.10;99.90
40123;DHT22;25832;45.490;4.912;2023-06-14T04:19:15;17.20;99.90
40123;DHT22;25832;45.490;4.912;2023-06-14T04:21:41;17.10;99.90
40123;DHT22;25832;45.490;4.912;2023-06-14T04:24:08;17.10;99.90
40123;DHT22;25832;45.490;4.912;2023-06-14T04:26:39;17.20;99.90
40123;DHT22;25832;45.490;4.912;2023-06-14T04:29:05;17.20;99.90
40123;DHT22;25832;45.490;4.912;2023-06-14T04:31:31;17.20;99.90
40123;DHT22;25832;45.490;4.912;2023-06-14T04:33:59;17.30;99.90
40123;DHT22;25832;45.490;4.912;2023-06-14T04:36:25;17.30;99.90
40123;DHT22;25832;45.490;4.912;2023-06-14T04:38:53;17.20;99.90
40123;DHT22;25832;45.490;4.912;2023-06-14T04:41:21;17.30;99.90
40123;DHT22;25832;45.490;4.912;2023-06-14T04:43:49;17.30;99.90
40123;DHT22;25832;45.490;4.912;2023-06-14T04:46:15;17.40;99.90
40123;DHT22;25832;45.490;4.912;2023-06-14T04:48:41;17.40;99.90
40123;DHT22;25832;45.490;4.912;2023-06-14T04:51:11;17.50;99.90
40123;DHT22;25832;45.490;4.912;2023-06-14T04:53:36;17.50;99.90
40123;DHT22;25832;45.490;4.912;2023-06-14T04:56:02;17.50;99.90
40123;DHT22;25832;45.490;4.912;2023-06-14T04:58:29;17.50;99.90
40123;DHT22;25832;45.490;4.912;2023-06-14T05:00:55;17.50;99.90
40123;DHT22;25832;45.490;4.912;2023-06-14T05:03:22;17.60;99.90
40123;DHT22;25832;45.490;4.912;2023-06-14T05:05:49;17.70;99.90
40123;DHT22;25832;45.490;4.912;2023-06-14T05:08:16;17.80;99.90
40123;DHT22;25832;45.490;4.912;2023-06-14T05:10:41;17.80;99.90
40123;DHT22;25832;45.490;4.912;2023-06-14T05:13:07;17.90;99.90
40123;DHT22;25832;45.490;4.912;2023-06-14T05:15:33;17.90;99.90
40123;DHT22;25832;45.490;4.912;2023-06-14T05:17:59;17.90;99.90
40123;DHT22;25832;45.490;4.912;2023-06-14T05:20:25;18.00;99.90
40123;DHT22;25832;45.490;4.912;2023-06-14T05:22:55;18.00;99.90
40123;DHT22;25832;45.490;4.912;2023-06-14T05:25:22;17.90;99.90
40123;DHT22;25832;45.490;4.912;2023-06-14T05:27:48;17.90;99.90
40123;DHT22;25832;45.490;4.912;2023-06-14T05:30:15;18.00;99.90
40123;DHT22;25832;45.490;4.912;2023-06-14T05:32:41;18.00;99.90
40123;DHT22;25832;45.490;4.912;2023-06-14T05:35:07;18.10;99.90
40123;DHT22;25832;45.490;4.912;2023-06-14T05:37:33;18.10;99.90
40123;DHT22;25832;45.490;4.912;2023-06-14T05:39:58;18.20;99.90
40123;DHT22;25832;45.490;4.912;2023-06-14T05:42:24;18.30;99.90
40123;DHT22;25832;45.490;4.912;2023-06-14T05:44:49;18.40;99.90
40123;DHT22;25832;45.490;4.912;2023-06-14T05:47:15;18.50;99.90
40123;DHT22;25832;45.490;4.912;2023-06-14T05:49:41;18.60;99.90
40123;DHT22;25832;45.490;4.912;2023-06-14T05:52:08;18.80;99.90
40123;DHT22;25832;45.490;4.912;2023-06-14T05:54:33;19.00;99.90
40123;DHT22;25832;45.490;4.912;2023-06-14T05:56:59;19.20;99.90
40123;DHT22;25832;45.490;4.912;2023-06-14T05:59:27;19.30;99.90
40123;DHT22;25832;45.490;4.912;2023-06-14T06:01:53;19.50;99.90
40123;DHT22;25832;45.490;4.912;2023-06-14T06:04:18;19.60;99.90
40123;DHT22;25832;45.490;4.912;2023-06-14T06:06:45;19.70;99.90
40123;DHT22;25832;45.490;4.912;2023-06-14T06:09:10;20.00;99.90
40123;DHT22;25832;45.490;4.912;2023-06-14T06:11:36;20.20;99.90
40123;DHT22;25832;45.490;4.912;2023-06-14T06:14:02;20.40;99.90
40123;DHT22;25832;45.490;4.912;2023-06-14T06:16:27;20.50;99.90
40123;DHT22;25832;45.490;4.912;2023-06-14T06:18:53;20.60;99.90
40123;DHT22;25832;45.490;4.912;2023-06-14T06:21:19;20.60;99.90
40123;DHT22;25832;45.490;4.912;2023-06-14T06:23:45;20.70;99.90
40123;DHT22;25832;45.490;4.912;2023-06-14T06:26:10;20.90;99.90
40123;DHT22;25832;45.490;4.912;2023-06-14T06:28:36;21.00;99.90
40123;DHT22;25832;45.490;4.912;2023-06-14T06:31:02;21.10;99.90
40123;DHT22;25832;45.490;4.912;2023-06-14T06:33:28;21.30;99.90
40123;DHT22;25832;45.490;4.912;2023-06-14T06:35:54;21.60;99.90
40123;DHT22;25832;45.490;4.912;2023-06-14T06:38:19;21.60;99.90
40123;DHT22;25832;45.490;4.912;2023-06-14T06:40:45;21.60;99.90
40123;DHT22;25832;45.490;4.912;2023-06-14T06:43:11;21.70;99.90
40123;DHT22;25832;45.490;4.912;2023-06-14T06:45:42;21.70;99.90
40123;DHT22;25832;45.490;4.912;2023-06-14T06:48:08;21.70;99.90
40123;DHT22;25832;45.490;4.912;2023-06-14T06:50:36;21.80;99.90
40123;DHT22;25832;45.490;4.912;2023-06-14T06:53:02;22.00;99.90
40123;DHT22;25832;45.490;4.912;2023-06-14T06:55:27;22.10;99.90
40123;DHT22;25832;45.490;4.912;2023-06-14T06:57:53;22.30;99.90
40123;DHT22;25832;45.490;4.912;2023-06-14T07:00:20;22.60;99.90
40123;DHT22;25832;45.490;4.912;2023-06-14T07:02:46;22.90;99.90
40123;DHT22;25832;45.490;4.912;2023-06-14T07:05:12;23.10;99.90
40123;DHT22;25832;45.490;4.912;2023-06-14T07:07:38;23.30;99.90
40123;DHT22;25832;45.490;4.912;2023-06-14T07:10:04;23.30;99.90
40123;DHT22;25832;45.490;4.912;2023-06-14T07:12:31;23.20;99.90
40123;DHT22;25832;45.490;4.912;2023-06-14T07:14:59;23.00;99.90
40123;DHT22;25832;45.490;4.912;2023-06-14T07:17:25;22.90;99.90
40123;DHT22;25832;45.490;4.912;2023-06-14T07:19:51;22.90;99.90
40123;DHT22;25832;45.490;4.912;2023-06-14T07:22:17;23.00;99.90
40123;DHT22;25832;45.490;4.912;2023-06-14T07:24:43;23.10;99.90
40123;DHT22;25832;45.490;4.912;2023-06-14T07:27:08;23.20;99.90
40123;DHT22;25832;45.490;4.912;2023-06-14T07:29:34;23.30;99.90
40123;DHT22;25832;45.490;4.912;2023-06-14T07:32:00;23.30;99.90
40123;DHT22;25832;45.490;4.912;2023-06-14T07:34:25;23.40;99.90
40123;DHT22;25832;45.490;4.912;2023-06-14T07:36:52;23.60;99.90
40123;DHT22;25832;45.490;4.912;2023-06-14T07:39:19;23.50;99.90
40123;DHT22;25832;45.490;4.912;2023-06-14T07:41:45;23.60;99.90
40123;DHT22;25832;45.490;4.912;2023-06-14T07:44:11;23.60;99.90
40123;DHT22;25832;45.490;4.912;2023-06-14T07:46:37;23.80;99.90
40123;DHT22;25832;45.490;4.912;2023-06-14T07:49:03;23.80;99.90
40123;DHT22;25832;45.490;4.912;2023-06-14T07:51:29;23.80;99.90
40123;DHT22;25832;45.490;4.912;2023-06-14T07:53:55;23.80;99.90
40123;DHT22;25832;45.490;4.912;2023-06-14T07:56:21;23.90;99.90
40123;DHT22;25832;45.490;4.912;2023-06-14T07:58:48;23.90;99.90
40123;DHT22;25832;45.490;4.912;2023-06-14T08:01:14;23.80;99.90
40123;DHT22;25832;45.490;4.912;2023-06-14T08:03:40;23.70;99.90
40123;DHT22;25832;45.490;4.912;2023-06-14T08:06:07;23.80;99.90
40123;DHT22;25832;45.490;4.912;2023-06-14T08:08:33;23.80;99.90
40123;DHT22;25832;45.490;4.912;2023-06-14T08:10:59;23.90;99.90
40123;DHT22;25832;45.490;4.912;2023-06-14T08:13:24;23.80;99.90
40123;DHT22;25832;45.490;4.912;2023-06-14T08:15:50;23.80;99.90
40123;DHT22;25832;45.490;4.912;2023-06-14T08:18:16;23.80;99.90
40123;DHT22;25832;45.490;4.912;2023-06-14T08:20:42;23.90;99.90
40123;DHT22;25832;45.490;4.912;2023-06-14T08:23:07;23.70;99.90
40123;DHT22;25832;45.490;4.912;2023-06-14T08:25:34;23.70;99.90
40123;DHT22;25832;45.490;4.912;2023-06-14T08:28:00;23.80;99.90
40123;DHT22;25832;45.490;4.912;2023-06-14T08:30:26;23.90;99.90
40123;DHT22;25832;45.490;4.912;2023-06-14T08:32:51;24.10;99.90
40123;DHT22;25832;45.490;4.912;2023-06-14T08:35:17;24.00;99.90
40123;DHT22;25832;45.490;4.912;2023-06-14T08:37:44;23.90;99.90
40123;DHT22;25832;45.490;4.912;2023-06-14T08:40:19;23.80;99.90
40123;DHT22;25832;45.490;4.912;2023-06-14T08:42:51;24.00;99.90
40123;DHT22;25832;45.490;4.912;2023-06-14T08:45:19;24.00;99.90
40123;DHT22;25832;45.490;4.912;2023-06-14T08:47:45;24.10;99.90
40123;DHT22;25832;45.490;4.912;2023-06-14T08:50:19;24.30;99.90
40123;DHT22;25832;45.490;4.912;2023-06-14T08:52:45;24.50;99.90
40123;DHT22;25832;45.490;4.912;2023-06-14T08:55:16;24.60;99.90
40123;DHT22;25832;45.490;4.912;2023-06-14T08:57:44;24.50;98.50
40123;DHT22;25832;45.490;4.912;2023-06-14T09:00:11;24.40;98.20
40123;DHT22;25832;45.490;4.912;2023-06-14T09:02:39;24.20;98.70
40123;DHT22;25832;45.490;4.912;2023-06-14T09:05:11;23.90;99.90
40123;DHT22;25832;45.490;4.912;2023-06-14T09:07:43;23.50;99.90
40123;DHT22;25832;45.490;4.912;2023-06-14T09:10:11;23.40;99.90
40123;DHT22;25832;45.490;4.912;2023-06-14T09:12:37;23.40;99.90
40123;DHT22;25832;45.490;4.912;2023-06-14T09:15:06;23.30;99.90
40123;DHT22;25832;45.490;4.912;2023-06-14T09:17:34;23.40;99.90
40123;DHT22;25832;45.490;4.912;2023-06-14T09:20:04;23.60;99.90
40123;DHT22;25832;45.490;4.912;2023-06-14T09:22:32;23.90;99.90
40123;DHT22;25832;45.490;4.912;2023-06-14T09:24:58;23.90;99.90
40123;DHT22;25832;45.490;4.912;2023-06-14T09:27:26;23.80;99.90
40123;DHT22;25832;45.490;4.912;2023-06-14T09:29:52;23.70;99.90
40123;DHT22;25832;45.490;4.912;2023-06-14T09:32:18;23.60;99.90
40123;DHT22;25832;45.490;4.912;2023-06-14T09:34:45;23.70;99.90
40123;DHT22;25832;45.490;4.912;2023-06-14T09:37:11;23.70;99.90
40123;DHT22;25832;45.490;4.912;2023-06-14T09:39:52;23.80;99.90
40123;DHT22;25832;45.490;4.912;2023-06-14T09:42:18;24.00;99.90
40123;DHT22;25832;45.490;4.912;2023-06-14T09:44:49;24.10;99.90
40123;DHT22;25832;45.490;4.912;2023-06-14T09:47:17;24.20;99.90
40123;DHT22;25832;45.490;4.912;2023-06-14T09:49:43;24.30;99.90
40123;DHT22;25832;45.490;4.912;2023-06-14T09:52:15;24.60;99.90
40123;DHT22;25832;45.490;4.912;2023-06-14T09:54:42;24.80;99.90
40123;DHT22;25832;45.490;4.912;2023-06-14T09:57:10;25.00;98.90
40123;DHT22;25832;45.490;4.912;2023-06-14T09:59:41;24.90;97.20
40123;DHT22;25832;45.490;4.912;2023-06-14T10:02:53;24.70;97.70
40123;DHT22;25832;45.490;4.912;2023-06-14T10:05:02;24.70;97.50
40123;DHT22;25832;45.490;4.912;2023-06-14T10:07:33;24.80;98.00
40123;DHT22;25832;45.490;4.912;2023-06-14T10:10:01;24.90;98.60
40123;DHT22;25832;45.490;4.912;2023-06-14T10:12:26;25.20;98.50
40123;DHT22;25832;45.490;4.912;2023-06-14T10:14:53;25.40;98.00
40123;DHT22;25832;45.490;4.912;2023-06-14T10:17:43;25.60;97.60
40123;DHT22;25832;45.490;4.912;2023-06-14T10:20:27;25.60;96.50
40123;DHT22;25832;45.490;4.912;2023-06-14T10:23:02;25.70;96.30
40123;DHT22;25832;45.490;4.912;2023-06-14T10:25:30;25.50;95.60
40123;DHT22;25832;45.490;4.912;2023-06-14T10:28:23;25.30;95.30
40123;DHT22;25832;45.490;4.912;2023-06-14T10:31:10;25.30;96.80
40123;DHT22;25832;45.490;4.912;2023-06-14T10:33:48;25.40;95.30
40123;DHT22;25832;45.490;4.912;2023-06-14T10:38:57;25.50;95.70
40123;DHT22;25832;45.490;4.912;2023-06-14T10:41:28;25.60;97.30
40123;DHT22;25832;45.490;4.912;2023-06-14T10:46:53;25.90;95.50
40123;DHT22;25832;45.490;4.912;2023-06-14T10:49:19;26.10;96.70
40123;DHT22;25832;45.490;4.912;2023-06-14T10:51:50;26.40;94.50
40123;DHT22;25832;45.490;4.912;2023-06-14T10:54:18;26.50;93.80
40123;DHT22;25832;45.490;4.912;2023-06-14T10:56:50;26.70;94.20
40123;DHT22;25832;45.490;4.912;2023-06-14T10:59:18;26.70;95.40
40123;DHT22;25832;45.490;4.912;2023-06-14T11:04:50;26.60;94.70
40123;DHT22;25832;45.490;4.912;2023-06-14T11:12:47;26.60;94.40
40123;DHT22;25832;45.490;4.912;2023-06-14T11:15:13;26.30;93.80
40123;DHT22;25832;45.490;4.912;2023-06-14T11:17:39;26.10;93.70
40123;DHT22;25832;45.490;4.912;2023-06-14T11:20:11;25.90;94.90
40123;DHT22;25832;45.490;4.912;2023-06-14T11:22:44;26.00;95.10
40123;DHT22;25832;45.490;4.912;2023-06-14T11:25:13;26.20;93.60
40123;DHT22;25832;45.490;4.912;2023-06-14T11:27:41;26.30;94.00
40123;DHT22;25832;45.490;4.912;2023-06-14T11:30:08;26.50;94.50
40123;DHT22;25832;45.490;4.912;2023-06-14T11:32:35;26.70;92.00
40123;DHT22;25832;45.490;4.912;2023-06-14T11:35:04;26.90;92.40
40123;DHT22;25832;45.490;4.912;2023-06-14T11:37:31;27.00;92.10
40123;DHT22;25832;45.490;4.912;2023-06-14T11:40:00;27.00;92.40
40123;DHT22;25832;45.490;4.912;2023-06-14T11:42:29;27.10;92.80
40123;DHT22;25832;45.490;4.912;2023-06-14T11:44:55;26.70;94.20
40123;DHT22;25832;45.490;4.912;2023-06-14T11:47:22;26.60;93.00
40123;DHT22;25832;45.490;4.912;2023-06-14T11:49:48;26.50;92.20
40123;DHT22;25832;45.490;4.912;2023-06-14T11:52:14;26.60;92.60
40123;DHT22;25832;45.490;4.912;2023-06-14T11:54:40;26.70;92.50
40123;DHT22;25832;45.490;4.912;2023-06-14T11:57:07;26.70;92.10
40123;DHT22;25832;45.490;4.912;2023-06-14T11:59:38;27.00;92.50
40123;DHT22;25832;45.490;4.912;2023-06-14T12:02:05;27.20;91.70
40123;DHT22;25832;45.490;4.912;2023-06-14T12:04:31;27.60;91.90
40123;DHT22;25832;45.490;4.912;2023-06-14T12:06:57;27.70;89.80
40123;DHT22;25832;45.490;4.912;2023-06-14T12:09:39;27.50;90.90
40123;DHT22;25832;45.490;4.912;2023-06-14T12:12:05;27.60;80.10
40123;DHT22;25832;45.490;4.912;2023-06-14T12:14:32;27.40;83.30
40123;DHT22;25832;45.490;4.912;2023-06-14T12:17:06;27.50;85.90
40123;DHT22;25832;45.490;4.912;2023-06-14T12:19:33;27.60;85.00
40123;DHT22;25832;45.490;4.912;2023-06-14T12:22:04;27.50;82.70
40123;DHT22;25832;45.490;4.912;2023-06-14T12:24:30;27.30;83.50
40123;DHT22;25832;45.490;4.912;2023-06-14T12:27:00;27.20;82.30
40123;DHT22;25832;45.490;4.912;2023-06-14T12:29:28;27.30;82.90
40123;DHT22;25832;45.490;4.912;2023-06-14T12:31:55;27.50;83.60
40123;DHT22;25832;45.490;4.912;2023-06-14T12:34:23;27.70;83.00
40123;DHT22;25832;45.490;4.912;2023-06-14T12:36:50;27.70;84.10
40123;DHT22;25832;45.490;4.912;2023-06-14T12:39:16;27.70;80.80
40123;DHT22;25832;45.490;4.912;2023-06-14T12:41:42;27.80;81.80
40123;DHT22;25832;45.490;4.912;2023-06-14T12:44:08;27.90;82.60
40123;DHT22;25832;45.490;4.912;2023-06-14T12:46:34;28.00;80.90
40123;DHT22;25832;45.490;4.912;2023-06-14T12:49:00;28.00;78.40
40123;DHT22;25832;45.490;4.912;2023-06-14T12:51:26;28.00;75.90
40123;DHT22;25832;45.490;4.912;2023-06-14T12:53:52;28.00;79.70
40123;DHT22;25832;45.490;4.912;2023-06-14T12:56:18;28.20;79.40
40123;DHT22;25832;45.490;4.912;2023-06-14T12:58:43;28.30;78.40
40123;DHT22;25832;45.490;4.912;2023-06-14T13:01:09;28.40;74.70
40123;DHT22;25832;45.490;4.912;2023-06-14T13:03:35;28.50;74.80
40123;DHT22;25832;45.490;4.912;2023-06-14T13:06:01;28.40;73.80
40123;DHT22;25832;45.490;4.912;2023-06-14T13:08:28;28.40;73.90
40123;DHT22;25832;45.490;4.912;2023-06-14T13:10:54;28.40;74.60
40123;DHT22;25832;45.490;4.912;2023-06-14T13:13:20;28.40;76.40
40123;DHT22;25832;45.490;4.912;2023-06-14T13:15:46;28.20;78.00
40123;DHT22;25832;45.490;4.912;2023-06-14T13:18:12;28.00;75.80
40123;DHT22;25832;45.490;4.912;2023-06-14T13:20:41;27.90;75.90
40123;DHT22;25832;45.490;4.912;2023-06-14T13:23:07;28.10;76.00
40123;DHT22;25832;45.490;4.912;2023-06-14T13:25:34;28.20;76.10
40123;DHT22;25832;45.490;4.912;2023-06-14T13:28:00;28.30;74.60
40123;DHT22;25832;45.490;4.912;2023-06-14T13:30:25;28.40;74.30
40123;DHT22;25832;45.490;4.912;2023-06-14T13:32:51;28.50;76.40
40123;DHT22;25832;45.490;4.912;2023-06-14T13:35:20;28.70;78.30
40123;DHT22;25832;45.490;4.912;2023-06-14T13:37:46;28.70;75.50
40123;DHT22;25832;45.490;4.912;2023-06-14T13:40:12;28.60;75.60
40123;DHT22;25832;45.490;4.912;2023-06-14T13:42:37;28.60;73.90
40123;DHT22;25832;45.490;4.912;2023-06-14T13:45:04;28.60;78.10
40123;DHT22;25832;45.490;4.912;2023-06-14T13:47:30;28.70;76.80
40123;DHT22;25832;45.490;4.912;2023-06-14T13:49:56;28.80;78.60
40123;DHT22;25832;45.490;4.912;2023-06-14T13:52:22;28.70;76.00
40123;DHT22;25832;45.490;4.912;2023-06-14T13:54:48;28.70;76.40
40123;DHT22;25832;45.490;4.912;2023-06-14T13:57:14;28.70;75.80
40123;DHT22;25832;45.490;4.912;2023-06-14T13:59:40;28.80;77.00
40123;DHT22;25832;45.490;4.912;2023-06-14T14:02:07;28.90;74.60
40123;DHT22;25832;45.490;4.912;2023-06-14T14:04:33;28.80;70.60
40123;DHT22;25832;45.490;4.912;2023-06-14T14:07:01;28.80;73.00
40123;DHT22;25832;45.490;4.912;2023-06-14T14:09:27;28.70;70.10
40123;DHT22;25832;45.490;4.912;2023-06-14T14:11:53;28.70;69.70
40123;DHT22;25832;45.490;4.912;2023-06-14T14:14:18;28.80;69.70
40123;DHT22;25832;45.490;4.912;2023-06-14T14:16:44;28.80;67.40
40123;DHT22;25832;45.490;4.912;2023-06-14T14:19:10;28.90;67.10
40123;DHT22;25832;45.490;4.912;2023-06-14T14:21:35;28.90;67.20
40123;DHT22;25832;45.490;4.912;2023-06-14T14:24:01;29.00;68.30
40123;DHT22;25832;45.490;4.912;2023-06-14T14:26:27;29.00;66.50
40123;DHT22;25832;45.490;4.912;2023-06-14T14:28:53;29.00;67.10
40123;DHT22;25832;45.490;4.912;2023-06-14T14:31:19;29.00;64.40
40123;DHT22;25832;45.490;4.912;2023-06-14T14:33:45;28.90;63.10
40123;DHT22;25832;45.490;4.912;2023-06-14T14:36:10;28.80;63.60
40123;DHT22;25832;45.490;4.912;2023-06-14T14:38:36;28.70;64.10
40123;DHT22;25832;45.490;4.912;2023-06-14T14:41:02;28.80;64.30
40123;DHT22;25832;45.490;4.912;2023-06-14T14:43:28;28.90;64.30
40123;DHT22;25832;45.490;4.912;2023-06-14T14:45:56;29.00;62.20
40123;DHT22;25832;45.490;4.912;2023-06-14T14:48:22;28.90;61.30
40123;DHT22;25832;45.490;4.912;2023-06-14T14:50:57;28.80;61.30
40123;DHT22;25832;45.490;4.912;2023-06-14T14:53:23;28.60;60.60
40123;DHT22;25832;45.490;4.912;2023-06-14T14:55:49;28.40;59.90
40123;DHT22;25832;45.490;4.912;2023-06-14T14:58:15;28.50;60.50
40123;DHT22;25832;45.490;4.912;2023-06-14T15:00:47;28.40;61.20
40123;DHT22;25832;45.490;4.912;2023-06-14T15:03:13;28.60;59.30
40123;DHT22;25832;45.490;4.912;2023-06-14T15:05:39;28.70;61.30
40123;DHT22;25832;45.490;4.912;2023-06-14T15:08:05;28.60;60.30
40123;DHT22;25832;45.490;4.912;2023-06-14T15:10:39;28.60;57.30
40123;DHT22;25832;45.490;4.912;2023-06-14T15:13:07;28.60;60.00
40123;DHT22;25832;45.490;4.912;2023-06-14T15:15:33;28.70;59.80
40123;DHT22;25832;45.490;4.912;2023-06-14T15:17:59;28.60;59.20
40123;DHT22;25832;45.490;4.912;2023-06-14T15:20:26;28.60;60.20
40123;DHT22;25832;45.490;4.912;2023-06-14T15:22:52;28.60;58.10
40123;DHT22;25832;45.490;4.912;2023-06-14T15:25:18;28.20;58.30
40123;DHT22;25832;45.490;4.912;2023-06-14T15:27:44;28.20;56.40
40123;DHT22;25832;45.490;4.912;2023-06-14T15:30:11;28.30;54.60
40123;DHT22;25832;45.490;4.912;2023-06-14T15:32:36;28.40;55.60
40123;DHT22;25832;45.490;4.912;2023-06-14T15:35:02;28.50;56.00
40123;DHT22;25832;45.490;4.912;2023-06-14T15:37:28;28.60;54.40
40123;DHT22;25832;45.490;4.912;2023-06-14T15:39:54;28.60;56.00
40123;DHT22;25832;45.490;4.912;2023-06-14T15:42:19;28.70;56.60
40123;DHT22;25832;45.490;4.912;2023-06-14T15:44:45;28.70;56.10
40123;DHT22;25832;45.490;4.912;2023-06-14T15:47:13;28.70;53.20
40123;DHT22;25832;45.490;4.912;2023-06-14T15:49:38;28.70;53.40